createdAt,value
2023-03-17T00:00:54.218Z,2.70
2023-03-17T00:03:29.848Z,2.50
2023-03-17T00:06:02.048Z,2.20
2023-03-17T00:08:36.129Z,2.50
2023-03-17T00:11:15.334Z,3.00
2023-03-17T00:13:46.412Z,2.20
2023-03-17T00:16:22.252Z,2.50
2023-03-17T00:18:54.885Z,2.40
2023-03-17T00:21:35.787Z,2.50
2023-03-17T00:24:06.755Z,3.10
2023-03-17T00:26:36.255Z,2.40
2023-03-17T00:29:06.220Z,3.00
2023-03-17T00:31:36.581Z,2.20
2023-03-17T00:34:08.205Z,2.70
2023-03-17T00:36:37.597Z,2.50
2023-03-17T00:41:43.825Z,2.00
2023-03-17T00:44:14.659Z,1.60
2023-03-17T00:46:44.828Z,1.90
2023-03-17T00:49:22.385Z,2.00
2023-03-17T00:51:54.965Z,2.50
2023-03-17T00:54:24.428Z,1.90
2023-03-17T00:56:53.901Z,1.60
2023-03-17T00:59:38.805Z,1.80
2023-03-17T01:02:13.351Z,2.50
2023-03-17T01:04:50.000Z,1.70
2023-03-17T01:07:22.687Z,2.40
2023-03-17T01:09:53.024Z,2.40
2023-03-17T01:12:22.502Z,1.60
2023-03-17T01:14:52.940Z,1.80
2023-03-17T01:17:23.188Z,2.20
2023-03-17T01:19:52.986Z,1.90
2023-03-17T01:22:22.519Z,1.90
2023-03-17T01:24:51.968Z,2.00
2023-03-17T01:27:22.167Z,1.80
2023-03-17T01:29:55.714Z,1.90
2023-03-17T01:32:25.857Z,2.20
2023-03-17T01:34:55.245Z,1.90
2023-03-17T01:37:24.739Z,2.20
2023-03-17T01:39:54.728Z,1.90
2023-03-17T01:42:24.171Z,1.80
2023-03-17T01:45:01.647Z,2.10
2023-03-17T01:47:32.228Z,2.10
2023-03-17T01:50:09.018Z,1.80
2023-03-17T01:52:40.716Z,1.80
2023-03-17T01:55:14.906Z,2.00
2023-03-17T01:57:53.566Z,1.40
2023-03-17T02:00:25.044Z,1.90
2023-03-17T02:02:57.697Z,1.80
2023-03-17T02:05:31.158Z,1.90
2023-03-17T02:08:00.605Z,1.70
2023-03-17T02:10:32.459Z,1.80
2023-03-17T02:13:05.876Z,1.70
2023-03-17T02:15:46.432Z,2.10
2023-03-17T02:18:18.593Z,2.00
2023-03-17T02:20:48.013Z,2.20
2023-03-17T02:23:23.050Z,2.10
2023-03-17T02:25:54.347Z,1.80
2023-03-17T02:28:30.576Z,2.40
2023-03-17T02:31:00.045Z,2.20
2023-03-17T02:33:30.244Z,2.20
2023-03-17T02:35:59.795Z,1.60
2023-03-17T02:38:29.210Z,2.10
2023-03-17T02:41:02.433Z,2.00
2023-03-17T02:43:31.904Z,2.30
2023-03-17T02:46:02.587Z,1.90
2023-03-17T02:48:34.300Z,1.90
2023-03-17T02:51:04.379Z,1.90
2023-03-17T02:53:33.855Z,1.90
2023-03-17T02:56:04.060Z,1.50
2023-03-17T02:58:33.573Z,1.30
2023-03-17T03:01:03.794Z,1.50
2023-03-17T03:03:33.468Z,1.40
2023-03-17T03:06:03.227Z,1.60
2023-03-17T03:08:32.994Z,1.80
2023-03-17T03:11:03.587Z,1.70
2023-03-17T03:13:33.106Z,1.80
2023-03-17T03:16:02.447Z,1.10
2023-03-17T03:18:33.196Z,1.00
2023-03-17T03:21:05.816Z,1.40
2023-03-17T03:23:36.130Z,1.60
2023-03-17T03:26:05.907Z,1.60
2023-03-17T03:28:35.366Z,1.80
2023-03-17T03:31:05.117Z,1.60
2023-03-17T03:33:35.267Z,1.90
2023-03-17T03:36:04.960Z,1.60
2023-03-17T03:38:34.912Z,1.50
2023-03-17T03:41:05.289Z,1.70
2023-03-17T03:43:36.688Z,1.40
2023-03-17T03:46:07.214Z,1.20
2023-03-17T03:48:37.209Z,1.00
2023-03-17T03:51:07.034Z,1.20
2023-03-17T03:53:37.459Z,1.60
2023-03-17T03:56:07.539Z,0.80
2023-03-17T03:58:37.270Z,0.90
2023-03-17T04:01:08.278Z,1.20
2023-03-17T04:03:39.305Z,2.10
2023-03-17T04:06:09.872Z,1.80
2023-03-17T04:08:39.316Z,1.50
2023-03-17T04:11:08.954Z,1.40
2023-03-17T04:13:38.758Z,1.20
2023-03-17T04:16:08.522Z,1.50
2023-03-17T04:18:37.979Z,1.00
2023-03-17T04:21:08.625Z,1.40
2023-03-17T04:23:38.019Z,1.20
2023-03-17T04:26:07.596Z,1.40
2023-03-17T04:28:36.938Z,1.40
2023-03-17T04:31:08.205Z,1.90
2023-03-17T04:33:38.497Z,1.80
2023-03-17T04:36:09.717Z,2.00
2023-03-17T04:38:39.253Z,1.30
2023-03-17T04:41:11.045Z,1.10
2023-03-17T04:43:41.384Z,1.30
2023-03-17T04:46:11.134Z,1.10
2023-03-17T04:48:41.521Z,1.50
2023-03-17T04:51:11.903Z,1.30
2023-03-17T04:53:41.400Z,0.90
2023-03-17T04:56:12.003Z,2.30
2023-03-17T04:58:41.408Z,2.80
2023-03-17T05:01:11.549Z,1.30
2023-03-17T05:03:41.279Z,1.40
2023-03-17T05:06:11.115Z,0.70
2023-03-17T05:08:40.641Z,1.20
2023-03-17T05:11:09.935Z,1.20
2023-03-17T05:13:43.391Z,1.30
2023-03-17T05:16:13.249Z,0.90
2023-03-17T05:18:43.987Z,1.00
2023-03-17T05:21:13.443Z,0.80
2023-03-17T05:23:43.140Z,0.90
2023-03-17T05:26:13.296Z,1.30
2023-03-17T05:28:43.368Z,0.80
2023-03-17T05:31:12.871Z,0.80
2023-03-17T05:33:42.521Z,1.30
2023-03-17T05:36:12.244Z,0.90
2023-03-17T05:38:42.893Z,1.20
2023-03-17T05:41:12.600Z,1.20
2023-03-17T05:43:44.429Z,1.20
2023-03-17T05:46:14.037Z,1.40
2023-03-17T05:48:43.968Z,1.50
2023-03-17T05:51:13.558Z,1.20
2023-03-17T05:53:43.708Z,1.20
2023-03-17T05:56:13.714Z,1.00
2023-03-17T05:58:43.264Z,1.50
2023-03-17T06:01:12.973Z,1.00
2023-03-17T06:03:44.255Z,0.80
2023-03-17T06:06:14.053Z,0.90
2023-03-17T06:08:44.230Z,1.30
2023-03-17T06:11:13.828Z,0.90
2023-03-17T06:13:43.227Z,1.40
2023-03-17T06:16:13.133Z,0.90
2023-03-17T06:18:43.017Z,1.60
2023-03-17T06:21:14.045Z,1.20
2023-03-17T06:23:43.720Z,1.20
2023-03-17T06:26:13.253Z,1.10
2023-03-17T06:28:42.660Z,2.90
2023-03-17T06:31:12.236Z,1.40
2023-03-17T06:33:41.946Z,1.40
2023-03-17T06:36:13.898Z,1.70
2023-03-17T06:38:46.505Z,1.00
2023-03-17T06:41:16.296Z,1.80
2023-03-17T06:43:45.717Z,1.30
2023-03-17T06:46:15.682Z,1.30
2023-03-17T06:48:45.456Z,1.00
2023-03-17T06:51:14.951Z,0.70
2023-03-17T06:53:44.432Z,2.10
2023-03-17T06:56:27.404Z,1.30
2023-03-17T06:58:59.977Z,1.20
2023-03-17T07:01:29.526Z,2.10
2023-03-17T07:04:00.590Z,3.10
2023-03-17T07:06:31.576Z,2.10
2023-03-17T07:09:02.349Z,2.30
2023-03-17T07:11:32.889Z,2.00
2023-03-17T07:14:05.404Z,2.20
2023-03-17T07:16:35.213Z,1.80
2023-03-17T07:19:05.245Z,1.30
2023-03-17T07:21:34.732Z,1.50
2023-03-17T07:24:05.027Z,1.00
2023-03-17T07:26:34.595Z,1.10
2023-03-17T07:29:06.121Z,1.70
2023-03-17T07:31:38.892Z,1.20
2023-03-17T07:34:08.543Z,1.20
2023-03-17T07:36:39.018Z,1.40
2023-03-17T07:39:12.199Z,1.30
2023-03-17T07:41:42.893Z,1.30
2023-03-17T07:44:13.512Z,1.00
2023-03-17T07:46:43.001Z,1.30
2023-03-17T07:49:15.364Z,1.10
2023-03-17T07:51:55.266Z,0.90
2023-03-17T07:54:27.192Z,1.20
2023-03-17T07:56:57.174Z,1.50
2023-03-17T07:59:28.150Z,1.30
2023-03-17T08:01:59.853Z,0.70
2023-03-17T08:04:29.836Z,1.30
2023-03-17T08:06:59.356Z,1.90
2023-03-17T08:09:28.926Z,1.20
2023-03-17T08:11:58.651Z,1.10
2023-03-17T08:14:28.089Z,1.10
2023-03-17T08:16:58.464Z,0.70
2023-03-17T08:19:29.903Z,2.70
2023-03-17T08:21:59.911Z,1.70
2023-03-17T08:24:29.657Z,2.00
2023-03-17T08:27:00.851Z,2.00
2023-03-17T08:29:35.939Z,1.40
2023-03-17T08:32:06.328Z,1.20
2023-03-17T08:34:36.434Z,0.80
2023-03-17T08:37:10.122Z,1.10
2023-03-17T08:39:41.114Z,1.50
2023-03-17T08:42:11.042Z,1.40
2023-03-17T08:44:43.541Z,1.60
2023-03-17T08:47:24.291Z,1.10
2023-03-17T08:49:56.458Z,1.00
2023-03-17T08:52:26.503Z,1.30
2023-03-17T08:54:59.719Z,1.20
2023-03-17T08:57:45.244Z,1.10
2023-03-17T09:00:20.663Z,1.10
2023-03-17T09:02:56.351Z,0.90
2023-03-17T09:05:30.896Z,1.20
2023-03-17T09:08:01.896Z,0.80
2023-03-17T09:10:31.995Z,1.50
2023-03-17T09:13:04.454Z,1.00
2023-03-17T09:15:37.957Z,1.00
2023-03-17T09:18:09.387Z,1.90
2023-03-17T09:20:39.784Z,0.90
2023-03-17T09:23:10.860Z,0.70
2023-03-17T09:25:42.514Z,0.90
2023-03-17T09:28:13.598Z,1.20
2023-03-17T09:30:43.571Z,1.30
2023-03-17T09:33:17.994Z,1.20
2023-03-17T09:38:17.748Z,0.90
2023-03-17T09:41:06.894Z,1.30
2023-03-17T09:44:08.962Z,1.60
2023-03-17T09:47:09.715Z,1.50
2023-03-17T09:49:49.865Z,1.10
2023-03-17T09:52:34.577Z,1.00
2023-03-17T09:55:08.906Z,1.20
2023-03-17T09:57:44.106Z,1.10
2023-03-17T10:00:18.396Z,1.50
2023-03-17T10:02:48.634Z,2.40
2023-03-17T10:05:35.979Z,1.10
2023-03-17T10:08:30.750Z,1.20
2023-03-17T10:11:29.718Z,1.30
2023-03-17T10:14:41.019Z,1.30
2023-03-17T10:17:27.339Z,1.20
2023-03-17T10:20:09.215Z,1.20
2023-03-17T10:22:59.142Z,1.60
2023-03-17T10:25:34.087Z,1.40
2023-03-17T10:28:33.281Z,1.20
2023-03-17T10:31:33.776Z,1.40
2023-03-17T10:34:26.851Z,1.40
2023-03-17T10:37:12.425Z,1.70
2023-03-17T10:40:05.595Z,1.60
2023-03-17T10:42:50.075Z,1.30
2023-03-17T10:45:33.513Z,1.80
2023-03-17T10:48:07.814Z,1.50
2023-03-17T10:50:41.804Z,1.10
2023-03-17T10:53:44.556Z,0.90
2023-03-17T10:56:30.257Z,1.30
2023-03-17T10:59:39.507Z,1.60
2023-03-17T11:02:36.324Z,1.80
2023-03-17T11:05:27.044Z,1.40
2023-03-17T11:11:08.085Z,1.20
2023-03-17T11:13:37.643Z,0.90
2023-03-17T11:16:24.916Z,1.40
2023-03-17T11:19:00.606Z,1.40
2023-03-17T11:21:47.676Z,0.70
2023-03-17T11:24:59.383Z,1.40
2023-03-17T11:27:36.835Z,1.40
2023-03-17T11:30:44.865Z,1.10
2023-03-17T11:33:51.264Z,2.40
2023-03-17T11:37:00.113Z,1.40
2023-03-17T11:39:49.096Z,1.40
2023-03-17T11:42:37.712Z,1.60
2023-03-17T11:45:29.166Z,2.00
2023-03-17T11:48:27.871Z,1.10
2023-03-17T11:51:16.329Z,1.40
2023-03-17T11:54:29.412Z,2.00
2023-03-17T11:57:09.091Z,1.30
2023-03-17T11:59:52.385Z,1.20
2023-03-17T12:02:31.698Z,1.20
2023-03-17T12:05:25.287Z,1.20
2023-03-17T12:08:37.987Z,2.00
2023-03-17T12:11:13.178Z,2.80
2023-03-17T12:14:15.822Z,4.30
2023-03-17T12:17:05.467Z,1.40
2023-03-17T12:20:22.754Z,1.30
2023-03-17T12:23:11.215Z,1.00
2023-03-17T12:26:14.941Z,1.50
2023-03-17T12:29:03.241Z,1.80
2023-03-17T12:31:57.046Z,1.60
2023-03-17T12:34:59.218Z,1.80
2023-03-17T12:37:30.482Z,1.40
2023-03-17T12:40:15.090Z,1.20
2023-03-17T12:43:08.944Z,1.60
2023-03-17T12:45:46.496Z,1.30
2023-03-17T12:48:55.785Z,1.80
2023-03-17T12:52:05.551Z,1.30
2023-03-17T12:54:39.909Z,1.60
2023-03-17T12:57:22.316Z,1.20
2023-03-17T13:00:17.530Z,1.20
2023-03-17T13:03:13.610Z,1.60
2023-03-17T13:05:51.514Z,1.80
2023-03-17T13:08:34.631Z,1.00
2023-03-17T13:11:45.858Z,1.10
2023-03-17T13:14:46.481Z,1.80
2023-03-17T13:17:19.894Z,1.20
2023-03-17T13:20:08.248Z,1.70
2023-03-17T13:23:12.756Z,1.30
2023-03-17T13:25:43.732Z,1.50
2023-03-17T13:28:13.323Z,1.70
2023-03-17T13:31:16.381Z,2.10
2023-03-17T13:33:57.808Z,1.50
2023-03-17T13:37:28.263Z,1.20
2023-03-17T13:40:58.717Z,2.10
2023-03-17T13:49:48.233Z,1.90
2023-03-17T13:52:59.491Z,1.50
2023-03-17T13:55:35.240Z,1.80
2023-03-17T13:58:11.987Z,1.40
2023-03-17T14:00:55.889Z,1.20
2023-03-17T14:03:49.222Z,1.90
2023-03-17T14:06:22.726Z,1.50
2023-03-17T14:08:58.268Z,1.40
2023-03-17T14:11:36.469Z,1.50
2023-03-17T14:14:50.063Z,2.20
2023-03-17T14:17:34.442Z,2.50
2023-03-17T14:20:16.295Z,1.10
2023-03-17T14:23:00.328Z,1.30
2023-03-17T14:25:41.065Z,1.60
2023-03-17T14:28:17.329Z,1.60
2023-03-17T14:30:59.548Z,1.70
2023-03-17T14:33:36.719Z,1.80
2023-03-17T14:36:14.600Z,1.30
2023-03-17T14:38:51.734Z,1.30
2023-03-17T14:41:28.968Z,1.10
2023-03-17T14:44:03.289Z,1.10
2023-03-17T14:46:40.614Z,1.60
2023-03-17T14:49:21.420Z,1.40
2023-03-17T14:51:53.843Z,1.00
2023-03-17T14:54:36.000Z,1.10
2023-03-17T14:57:09.241Z,1.00
2023-03-17T15:00:03.567Z,1.20
2023-03-17T15:02:55.504Z,1.20
2023-03-17T15:05:46.994Z,0.80
2023-03-17T15:08:36.068Z,0.70
2023-03-17T15:11:15.094Z,1.50
2023-03-17T15:13:45.173Z,1.40
2023-03-17T15:16:35.157Z,1.00
2023-03-17T15:19:23.351Z,1.30
2023-03-17T15:21:53.041Z,1.20
2023-03-17T15:24:47.570Z,1.40
2023-03-17T15:27:18.934Z,0.80
2023-03-17T15:29:48.481Z,1.20
2023-03-17T15:32:23.643Z,1.40
2023-03-17T15:34:59.619Z,0.90
2023-03-17T15:37:34.052Z,1.10
2023-03-17T15:40:06.230Z,1.60
2023-03-17T15:42:41.327Z,1.00
2023-03-17T15:45:17.201Z,1.20
2023-03-17T15:47:47.895Z,1.20
2023-03-17T15:50:30.441Z,0.80
2023-03-17T15:53:01.431Z,1.00
2023-03-17T15:55:32.545Z,1.10
2023-03-17T15:58:02.080Z,1.00
2023-03-17T16:00:33.621Z,1.30
2023-03-17T16:03:18.733Z,1.20
2023-03-17T16:05:48.315Z,1.50
2023-03-17T16:08:19.197Z,1.10
2023-03-17T16:10:49.502Z,1.10
2023-03-17T16:13:19.832Z,1.30
2023-03-17T16:16:05.683Z,1.20
2023-03-17T16:18:38.388Z,1.30
2023-03-17T16:21:08.008Z,1.20
2023-03-17T16:23:40.808Z,1.60
2023-03-17T16:26:16.069Z,0.90
2023-03-17T16:28:48.003Z,1.10
2023-03-17T16:31:33.338Z,1.40
2023-03-17T16:34:02.836Z,1.00
2023-03-17T16:36:32.638Z,1.10
2023-03-17T16:39:02.577Z,1.60
2023-03-17T16:41:35.459Z,1.30
2023-03-17T16:44:06.649Z,1.60
2023-03-17T16:46:36.162Z,1.60
2023-03-17T16:49:06.493Z,1.80
2023-03-17T16:51:35.964Z,1.70
2023-03-17T16:54:05.570Z,2.60
2023-03-17T16:56:42.472Z,2.20
2023-03-17T16:59:21.399Z,1.80
2023-03-17T17:01:51.076Z,2.80
2023-03-17T17:04:20.634Z,2.70
2023-03-17T17:06:50.796Z,3.10
2023-03-17T17:09:20.490Z,2.30
2023-03-17T17:11:50.126Z,2.60
2023-03-17T17:14:19.902Z,2.80
2023-03-17T17:16:49.383Z,1.70
2023-03-17T17:19:18.961Z,2.00
2023-03-17T17:21:48.452Z,1.50
2023-03-17T17:24:17.796Z,1.40
2023-03-17T17:26:47.312Z,1.30
2023-03-17T17:29:16.708Z,1.70
2023-03-17T17:31:46.238Z,1.30
2023-03-17T17:34:15.612Z,1.80
2023-03-17T17:36:45.115Z,1.80
2023-03-17T17:39:14.896Z,2.20
2023-03-17T17:41:44.327Z,2.00
2023-03-17T17:44:13.749Z,2.00
2023-03-17T17:46:43.313Z,2.10
2023-03-17T17:49:13.115Z,1.60
2023-03-17T17:51:42.504Z,1.90
2023-03-17T17:54:12.480Z,2.40
2023-03-17T17:56:46.961Z,2.50
2023-03-17T17:59:16.793Z,1.90
2023-03-17T18:01:46.265Z,2.40
2023-03-17T18:04:15.927Z,2.00
2023-03-17T18:06:46.524Z,2.40
2023-03-17T18:09:16.728Z,3.00
2023-03-17T18:11:46.220Z,3.10
2023-03-17T18:14:15.578Z,3.00
2023-03-17T18:16:45.336Z,3.50
2023-03-17T18:19:15.993Z,3.10
2023-03-17T18:21:46.729Z,2.70
2023-03-17T18:24:16.502Z,2.50
2023-03-17T18:26:45.912Z,2.20
2023-03-17T18:29:15.444Z,2.30
2023-03-17T18:31:49.758Z,2.20
2023-03-17T18:34:32.812Z,2.10
2023-03-17T18:37:02.736Z,1.90
2023-03-17T18:39:32.691Z,2.30
2023-03-17T18:42:03.245Z,2.10
2023-03-17T18:44:33.259Z,2.20
2023-03-17T18:47:03.491Z,2.10
2023-03-17T18:49:33.863Z,2.20
2023-03-17T18:52:03.261Z,2.10
2023-03-17T18:54:34.370Z,3.40
2023-03-17T18:57:03.994Z,2.50
2023-03-17T18:59:33.323Z,1.80
2023-03-17T19:02:04.801Z,2.00
2023-03-17T19:04:34.237Z,2.30
2023-03-17T19:07:03.683Z,2.20
2023-03-17T19:09:33.558Z,2.10
2023-03-17T19:12:02.987Z,2.70
2023-03-17T19:14:32.483Z,2.80
2023-03-17T19:17:01.832Z,3.00
2023-03-17T19:19:32.285Z,2.90
2023-03-17T19:22:02.153Z,2.60
2023-03-17T19:24:32.395Z,2.50
2023-03-17T19:27:01.989Z,3.00
2023-03-17T19:29:32.640Z,2.30
2023-03-17T19:32:02.570Z,2.30
2023-03-17T19:34:32.317Z,2.70
2023-03-17T19:37:03.671Z,2.10
2023-03-17T19:39:34.146Z,2.30
2023-03-17T19:42:03.779Z,2.80
2023-03-17T19:44:34.333Z,1.80
2023-03-17T19:47:06.784Z,2.40
2023-03-17T19:49:37.842Z,2.40
2023-03-17T19:52:08.315Z,1.80
2023-03-17T19:54:38.361Z,1.90
2023-03-17T19:57:07.757Z,2.30
2023-03-17T19:59:37.179Z,2.40
2023-03-17T20:02:08.042Z,2.30
2023-03-17T20:04:38.040Z,2.10
2023-03-17T20:07:07.691Z,2.60
2023-03-17T20:09:38.193Z,2.60
2023-03-17T20:12:08.130Z,2.40
2023-03-17T20:14:37.577Z,2.60
2023-03-17T20:17:07.085Z,1.90
2023-03-17T20:19:39.484Z,1.70
2023-03-17T20:22:09.133Z,2.10
2023-03-17T20:24:39.238Z,1.90
2023-03-17T20:27:10.728Z,2.30
2023-03-17T20:29:40.168Z,2.40
2023-03-17T20:32:11.614Z,2.00
2023-03-17T20:34:45.085Z,1.80
2023-03-17T20:37:14.847Z,2.00
2023-03-17T20:39:44.441Z,2.10
2023-03-17T20:42:14.895Z,2.50
2023-03-17T20:44:44.447Z,2.50
2023-03-17T20:47:14.340Z,2.10
2023-03-17T20:49:43.962Z,2.40
2023-03-17T20:52:15.112Z,2.10
2023-03-17T20:54:45.851Z,2.00
2023-03-17T20:57:16.165Z,2.50
2023-03-17T20:59:45.693Z,2.00
2023-03-17T21:02:18.450Z,2.10
2023-03-17T21:04:49.253Z,2.20
2023-03-17T21:07:21.687Z,1.80
2023-03-17T21:09:51.832Z,2.10
2023-03-17T21:12:21.456Z,2.20
2023-03-17T21:14:50.818Z,1.80
2023-03-17T21:17:20.256Z,1.90
2023-03-17T21:19:49.689Z,2.20
2023-03-17T21:22:19.146Z,1.90
2023-03-17T21:24:49.186Z,1.70
2023-03-17T21:27:18.971Z,1.70
2023-03-17T21:29:49.070Z,1.80
2023-03-17T21:32:18.740Z,1.50
2023-03-17T21:34:48.265Z,1.40
2023-03-17T21:37:18.484Z,1.60
2023-03-17T21:39:47.854Z,1.60
2023-03-17T21:42:17.202Z,1.50
2023-03-17T21:44:48.410Z,1.60
2023-03-17T21:47:19.094Z,1.40
2023-03-17T21:49:48.555Z,1.70
2023-03-17T21:52:21.985Z,1.20
2023-03-17T21:54:51.695Z,1.50
2023-03-17T21:57:21.163Z,1.80
2023-03-17T21:59:50.593Z,1.50
2023-03-17T22:02:21.097Z,1.30
2023-03-17T22:04:50.539Z,1.50
2023-03-17T22:07:20.031Z,1.80
2023-03-17T22:09:53.486Z,1.30
2023-03-17T22:12:24.489Z,1.30
2023-03-17T22:14:58.400Z,1.40
2023-03-17T22:17:28.225Z,1.40
2023-03-17T22:19:58.055Z,0.90
2023-03-17T22:22:29.036Z,1.20
2023-03-17T22:24:58.564Z,1.20
2023-03-17T22:27:28.044Z,1.30
2023-03-17T22:29:57.871Z,1.20
2023-03-17T22:32:27.347Z,1.00
2023-03-17T22:34:56.881Z,1.60
2023-03-17T22:37:26.830Z,1.40
2023-03-17T22:39:56.982Z,1.30
2023-03-17T22:42:26.721Z,1.50
2023-03-17T22:44:56.382Z,1.20
2023-03-17T22:47:25.842Z,1.70
2023-03-17T22:49:55.241Z,1.20
2023-03-17T22:52:24.755Z,1.80
2023-03-17T22:54:54.144Z,1.40
2023-03-17T22:57:23.650Z,1.20
2023-03-17T22:59:55.386Z,1.40
2023-03-17T23:02:26.391Z,1.60
2023-03-17T23:04:55.809Z,1.40
2023-03-17T23:07:25.174Z,1.60
2023-03-17T23:09:54.603Z,1.90
2023-03-17T23:12:24.813Z,2.00
2023-03-17T23:14:54.539Z,1.80
2023-03-17T23:17:24.006Z,2.20
2023-03-17T23:19:53.492Z,2.00
2023-03-17T23:22:22.895Z,1.70
2023-03-17T23:24:53.406Z,2.20
2023-03-17T23:27:22.732Z,2.10
2023-03-17T23:29:53.338Z,2.00
2023-03-17T23:32:23.220Z,1.70
2023-03-17T23:34:52.944Z,1.80
2023-03-17T23:37:22.481Z,2.30
2023-03-17T23:39:51.967Z,1.90
2023-03-17T23:42:21.464Z,2.20
2023-03-17T23:44:50.742Z,2.20
2023-03-17T23:47:20.747Z,2.20
2023-03-17T23:49:50.125Z,2.20
2023-03-17T23:52:22.021Z,2.20
2023-03-17T23:54:51.459Z,2.60
2023-03-17T23:57:21.050Z,2.30
2023-03-17T23:59:50.860Z,2.60
